sensor_id;sensor_type;location;lat;lon;timestamp;P1;durP1;ratioP1;P2;durP2;ratioP2
25982;SDS011;13773;48.868;10.730;2023-08-08T00:01:06;2.37;;;1.90;;
25982;SDS011;13773;48.868;10.730;2023-08-08T00:03:32;2.10;;;1.90;;
25982;SDS011;13773;48.868;10.730;2023-08-08T00:05:58;5.17;;;2.07;;
25982;SDS011;13773;48.868;10.730;2023-08-08T00:08:23;2.53;;;2.20;;
25982;SDS011;13773;48.868;10.730;2023-08-08T00:10:49;2.63;;;2.40;;
25982;SDS011;13773;48.868;10.730;2023-08-08T00:13:15;2.90;;;2.10;;
25982;SDS011;13773;48.868;10.730;2023-08-08T00:15:41;3.23;;;2.20;;
25982;SDS011;13773;48.868;10.730;2023-08-08T00:18:07;3.00;;;2.30;;
25982;SDS011;13773;48.868;10.730;2023-08-08T00:20:32;2.17;;;1.97;;
25982;SDS011;13773;48.868;10.730;2023-08-08T00:22:59;2.33;;;1.90;;
25982;SDS011;13773;48.868;10.730;2023-08-08T00:25:25;2.50;;;2.27;;
25982;SDS011;13773;48.868;10.730;2023-08-08T00:27:51;2.27;;;2.07;;
25982;SDS011;13773;48.868;10.730;2023-08-08T00:30:16;3.07;;;2.40;;
25982;SDS011;13773;48.868;10.730;2023-08-08T00:32:42;2.20;;;2.00;;
25982;SDS011;13773;48.868;10.730;2023-08-08T00:35:08;5.13;;;2.30;;
25982;SDS011;13773;48.868;10.730;2023-08-08T00:37:34;1.70;;;1.60;;
25982;SDS011;13773;48.868;10.730;2023-08-08T00:40:00;2.23;;;2.03;;
25982;SDS011;13773;48.868;10.730;2023-08-08T00:42:26;4.47;;;2.20;;
25982;SDS011;13773;48.868;10.730;2023-08-08T00:44:51;2.20;;;1.77;;
25982;SDS011;13773;48.868;10.730;2023-08-08T00:47:17;2.40;;;1.73;;
25982;SDS011;13773;48.868;10.730;2023-08-08T00:49:43;2.17;;;1.97;;
25982;SDS011;13773;48.868;10.730;2023-08-08T00:52:11;2.10;;;1.90;;
25982;SDS011;13773;48.868;10.730;2023-08-08T00:54:38;4.30;;;1.80;;
25982;SDS011;13773;48.868;10.730;2023-08-08T00:57:04;4.17;;;1.90;;
25982;SDS011;13773;48.868;10.730;2023-08-08T00:59:30;2.33;;;1.70;;
25982;SDS011;13773;48.868;10.730;2023-08-08T01:01:57;2.77;;;2.30;;
25982;SDS011;13773;48.868;10.730;2023-08-08T01:04:24;3.27;;;2.03;;
25982;SDS011;13773;48.868;10.730;2023-08-08T01:06:58;2.00;;;1.73;;
25982;SDS011;13773;48.868;10.730;2023-08-08T01:12:22;3.43;;;2.17;;
25982;SDS011;13773;48.868;10.730;2023-08-08T01:14:49;2.03;;;1.73;;
25982;SDS011;13773;48.868;10.730;2023-08-08T01:17:15;2.60;;;2.10;;
25982;SDS011;13773;48.868;10.730;2023-08-08T01:19:42;2.33;;;1.93;;
25982;SDS011;13773;48.868;10.730;2023-08-08T01:22:14;2.27;;;2.00;;
25982;SDS011;13773;48.868;10.730;2023-08-08T01:24:47;2.07;;;1.80;;
25982;SDS011;13773;48.868;10.730;2023-08-08T01:27:13;2.53;;;2.00;;
25982;SDS011;13773;48.868;10.730;2023-08-08T01:29:39;2.47;;;2.13;;
25982;SDS011;13773;48.868;10.730;2023-08-08T01:32:07;3.47;;;2.33;;
25982;SDS011;13773;48.868;10.730;2023-08-08T01:34:34;4.40;;;2.30;;
25982;SDS011;13773;48.868;10.730;2023-08-08T01:37:13;3.60;;;2.30;;
25982;SDS011;13773;48.868;10.730;2023-08-08T01:39:45;2.30;;;2.10;;
25982;SDS011;13773;48.868;10.730;2023-08-08T01:42:12;5.43;;;2.23;;
25982;SDS011;13773;48.868;10.730;2023-08-08T01:44:40;3.73;;;2.30;;
25982;SDS011;13773;48.868;10.730;2023-08-08T01:47:07;3.23;;;2.20;;
25982;SDS011;13773;48.868;10.730;2023-08-08T01:49:34;2.63;;;2.43;;
25982;SDS011;13773;48.868;10.730;2023-08-08T01:51:59;2.83;;;2.63;;
25982;SDS011;13773;48.868;10.730;2023-08-08T01:54:25;2.83;;;2.50;;
25982;SDS011;13773;48.868;10.730;2023-08-08T01:56:51;5.83;;;2.70;;
25982;SDS011;13773;48.868;10.730;2023-08-08T01:59:17;3.20;;;2.53;;
25982;SDS011;13773;48.868;10.730;2023-08-08T02:01:42;3.03;;;2.57;;
25982;SDS011;13773;48.868;10.730;2023-08-08T02:04:08;2.60;;;2.40;;
25982;SDS011;13773;48.868;10.730;2023-08-08T02:06:34;3.70;;;2.50;;
25982;SDS011;13773;48.868;10.730;2023-08-08T02:09:00;3.63;;;2.60;;
25982;SDS011;13773;48.868;10.730;2023-08-08T02:11:25;3.80;;;2.73;;
25982;SDS011;13773;48.868;10.730;2023-08-08T02:13:51;3.17;;;2.87;;
25982;SDS011;13773;48.868;10.730;2023-08-08T02:16:17;2.37;;;2.17;;
25982;SDS011;13773;48.868;10.730;2023-08-08T02:18:42;2.57;;;2.03;;
25982;SDS011;13773;48.868;10.730;2023-08-08T02:21:08;2.67;;;2.20;;
25982;SDS011;13773;48.868;10.730;2023-08-08T02:23:34;3.00;;;1.97;;
25982;SDS011;13773;48.868;10.730;2023-08-08T02:26:00;5.43;;;3.03;;
25982;SDS011;13773;48.868;10.730;2023-08-08T02:28:26;3.60;;;2.13;;
25982;SDS011;13773;48.868;10.730;2023-08-08T02:30:52;3.00;;;2.30;;
25982;SDS011;13773;48.868;10.730;2023-08-08T02:33:18;3.77;;;2.43;;
25982;SDS011;13773;48.868;10.730;2023-08-08T02:35:44;2.70;;;2.20;;
25982;SDS011;13773;48.868;10.730;2023-08-08T02:38:10;3.90;;;2.03;;
25982;SDS011;13773;48.868;10.730;2023-08-08T02:40:36;2.73;;;2.30;;
25982;SDS011;13773;48.868;10.730;2023-08-08T02:43:03;2.57;;;2.37;;
25982;SDS011;13773;48.868;10.730;2023-08-08T02:45:29;2.40;;;2.20;;
25982;SDS011;13773;48.868;10.730;2023-08-08T02:47:55;2.77;;;2.57;;
25982;SDS011;13773;48.868;10.730;2023-08-08T02:50:21;2.30;;;2.10;;
25982;SDS011;13773;48.868;10.730;2023-08-08T02:52:46;3.50;;;2.30;;
25982;SDS011;13773;48.868;10.730;2023-08-08T02:55:12;2.70;;;2.10;;
25982;SDS011;13773;48.868;10.730;2023-08-08T02:57:39;2.97;;;2.10;;
25982;SDS011;13773;48.868;10.730;2023-08-08T03:00:05;3.67;;;2.13;;
25982;SDS011;13773;48.868;10.730;2023-08-08T03:02:33;2.10;;;1.90;;
25982;SDS011;13773;48.868;10.730;2023-08-08T03:04:59;2.57;;;2.03;;
25982;SDS011;13773;48.868;10.730;2023-08-08T03:07:25;2.00;;;1.80;;
25982;SDS011;13773;48.868;10.730;2023-08-08T03:09:50;2.37;;;2.00;;
25982;SDS011;13773;48.868;10.730;2023-08-08T03:12:16;3.67;;;2.20;;
25982;SDS011;13773;48.868;10.730;2023-08-08T03:14:42;4.27;;;2.30;;
25982;SDS011;13773;48.868;10.730;2023-08-08T03:17:08;3.13;;;2.20;;
25982;SDS011;13773;48.868;10.730;2023-08-08T03:19:33;2.23;;;2.03;;
25982;SDS011;13773;48.868;10.730;2023-08-08T03:21:59;4.53;;;2.37;;
25982;SDS011;13773;48.868;10.730;2023-08-08T03:24:25;2.53;;;2.33;;
25982;SDS011;13773;48.868;10.730;2023-08-08T03:26:51;1.97;;;1.87;;
25982;SDS011;13773;48.868;10.730;2023-08-08T03:29:16;2.20;;;2.03;;
25982;SDS011;13773;48.868;10.730;2023-08-08T03:31:42;5.27;;;2.30;;
25982;SDS011;13773;48.868;10.730;2023-08-08T03:34:08;3.80;;;2.20;;
25982;SDS011;13773;48.868;10.730;2023-08-08T03:36:33;2.63;;;2.17;;
25982;SDS011;13773;48.868;10.730;2023-08-08T03:38:59;2.40;;;2.20;;
25982;SDS011;13773;48.868;10.730;2023-08-08T03:41:25;4.20;;;2.37;;
25982;SDS011;13773;48.868;10.730;2023-08-08T03:43:50;5.00;;;2.93;;
25982;SDS011;13773;48.868;10.730;2023-08-08T03:46:16;2.83;;;2.27;;
25982;SDS011;13773;48.868;10.730;2023-08-08T03:48:42;4.03;;;2.57;;
25982;SDS011;13773;48.868;10.730;2023-08-08T03:51:08;3.83;;;2.50;;
25982;SDS011;13773;48.868;10.730;2023-08-08T03:53:33;3.80;;;2.50;;
25982;SDS011;13773;48.868;10.730;2023-08-08T03:55:59;4.33;;;2.63;;
25982;SDS011;13773;48.868;10.730;2023-08-08T03:58:25;4.00;;;2.50;;
25982;SDS011;13773;48.868;10.730;2023-08-08T04:00:51;3.67;;;2.30;;
25982;SDS011;13773;48.868;10.730;2023-08-08T04:03:16;3.40;;;2.70;;
25982;SDS011;13773;48.868;10.730;2023-08-08T04:05:46;2.73;;;2.10;;
25982;SDS011;13773;48.868;10.730;2023-08-08T04:08:13;3.57;;;2.50;;
25982;SDS011;13773;48.868;10.730;2023-08-08T04:10:42;3.17;;;2.30;;
25982;SDS011;13773;48.868;10.730;2023-08-08T04:13:11;2.37;;;2.10;;
25982;SDS011;13773;48.868;10.730;2023-08-08T04:15:37;4.43;;;2.57;;
25982;SDS011;13773;48.868;10.730;2023-08-08T04:18:03;3.70;;;2.40;;
25982;SDS011;13773;48.868;10.730;2023-08-08T04:20:31;3.13;;;2.23;;
25982;SDS011;13773;48.868;10.730;2023-08-08T04:23:00;3.43;;;2.40;;
25982;SDS011;13773;48.868;10.730;2023-08-08T04:25:26;2.97;;;2.07;;
25982;SDS011;13773;48.868;10.730;2023-08-08T04:27:53;3.20;;;2.07;;
25982;SDS011;13773;48.868;10.730;2023-08-08T04:30:18;3.47;;;2.20;;
25982;SDS011;13773;48.868;10.730;2023-08-08T04:32:44;4.07;;;2.27;;
25982;SDS011;13773;48.868;10.730;2023-08-08T04:35:10;2.60;;;2.07;;
25982;SDS011;13773;48.868;10.730;2023-08-08T04:37:36;2.27;;;2.07;;
25982;SDS011;13773;48.868;10.730;2023-08-08T04:40:02;5.10;;;2.40;;
25982;SDS011;13773;48.868;10.730;2023-08-08T04:42:28;5.60;;;2.40;;
25982;SDS011;13773;48.868;10.730;2023-08-08T04:44:55;6.17;;;2.20;;
25982;SDS011;13773;48.868;10.730;2023-08-08T04:47:21;5.10;;;2.20;;
25982;SDS011;13773;48.868;10.730;2023-08-08T04:49:46;6.10;;;2.60;;
25982;SDS011;13773;48.868;10.730;2023-08-08T04:52:12;6.43;;;2.40;;
25982;SDS011;13773;48.868;10.730;2023-08-08T04:54:38;2.73;;;2.50;;
25982;SDS011;13773;48.868;10.730;2023-08-08T04:57:04;2.67;;;2.00;;
25982;SDS011;13773;48.868;10.730;2023-08-08T04:59:33;4.87;;;2.60;;
25982;SDS011;13773;48.868;10.730;2023-08-08T05:01:58;4.33;;;2.50;;
25982;SDS011;13773;48.868;10.730;2023-08-08T05:04:27;4.40;;;2.47;;
25982;SDS011;13773;48.868;10.730;2023-08-08T05:06:53;3.43;;;2.67;;
25982;SDS011;13773;48.868;10.730;2023-08-08T05:09:19;3.73;;;2.40;;
25982;SDS011;13773;48.868;10.730;2023-08-08T05:11:45;4.33;;;2.60;;
25982;SDS011;13773;48.868;10.730;2023-08-08T05:14:11;2.27;;;2.00;;
25982;SDS011;13773;48.868;10.730;2023-08-08T05:16:37;2.93;;;2.10;;
25982;SDS011;13773;48.868;10.730;2023-08-08T05:19:03;3.33;;;2.10;;
25982;SDS011;13773;48.868;10.730;2023-08-08T05:21:29;5.63;;;2.17;;
25982;SDS011;13773;48.868;10.730;2023-08-08T05:23:54;2.67;;;2.47;;
25982;SDS011;13773;48.868;10.730;2023-08-08T05:26:20;4.43;;;2.87;;
25982;SDS011;13773;48.868;10.730;2023-08-08T05:28:46;5.20;;;2.33;;
25982;SDS011;13773;48.868;10.730;2023-08-08T05:31:11;3.17;;;2.33;;
25982;SDS011;13773;48.868;10.730;2023-08-08T05:33:37;4.27;;;2.30;;
25982;SDS011;13773;48.868;10.730;2023-08-08T05:36:03;2.33;;;2.13;;
25982;SDS011;13773;48.868;10.730;2023-08-08T05:38:29;2.33;;;1.73;;
25982;SDS011;13773;48.868;10.730;2023-08-08T05:40:54;4.53;;;1.80;;
25982;SDS011;13773;48.868;10.730;2023-08-08T05:43:20;3.37;;;2.10;;
25982;SDS011;13773;48.868;10.730;2023-08-08T05:45:46;3.30;;;1.90;;
25982;SDS011;13773;48.868;10.730;2023-08-08T05:48:12;2.70;;;1.93;;
25982;SDS011;13773;48.868;10.730;2023-08-08T05:50:38;2.33;;;1.70;;
25982;SDS011;13773;48.868;10.730;2023-08-08T05:53:04;3.03;;;1.67;;
25982;SDS011;13773;48.868;10.730;2023-08-08T05:55:31;1.70;;;1.53;;
25982;SDS011;13773;48.868;10.730;2023-08-08T05:57:56;3.17;;;1.70;;
25982;SDS011;13773;48.868;10.730;2023-08-08T06:00:22;2.10;;;1.50;;
25982;SDS011;13773;48.868;10.730;2023-08-08T06:02:48;2.07;;;1.40;;
25982;SDS011;13773;48.868;10.730;2023-08-08T06:05:16;2.40;;;1.37;;
25982;SDS011;13773;48.868;10.730;2023-08-08T06:07:42;2.40;;;1.60;;
25982;SDS011;13773;48.868;10.730;2023-08-08T06:10:08;3.97;;;1.83;;
25982;SDS011;13773;48.868;10.730;2023-08-08T06:12:35;1.67;;;1.57;;
25982;SDS011;13773;48.868;10.730;2023-08-08T06:15:00;2.20;;;1.73;;
25982;SDS011;13773;48.868;10.730;2023-08-08T06:17:26;1.80;;;1.50;;
25982;SDS011;13773;48.868;10.730;2023-08-08T06:19:53;3.33;;;1.60;;
25982;SDS011;13773;48.868;10.730;2023-08-08T06:22:21;1.50;;;1.40;;
25982;SDS011;13773;48.868;10.730;2023-08-08T06:24:47;2.73;;;1.50;;
25982;SDS011;13773;48.868;10.730;2023-08-08T06:27:12;3.53;;;1.30;;
25982;SDS011;13773;48.868;10.730;2023-08-08T06:29:38;2.00;;;1.47;;
25982;SDS011;13773;48.868;10.730;2023-08-08T06:32:04;1.60;;;1.50;;
25982;SDS011;13773;48.868;10.730;2023-08-08T06:34:30;3.10;;;1.67;;
25982;SDS011;13773;48.868;10.730;2023-08-08T06:36:56;1.73;;;1.50;;
25982;SDS011;13773;48.868;10.730;2023-08-08T06:39:22;2.53;;;1.50;;
25982;SDS011;13773;48.868;10.730;2023-08-08T06:41:47;1.93;;;1.43;;
25982;SDS011;13773;48.868;10.730;2023-08-08T06:44:13;2.10;;;1.53;;
25982;SDS011;13773;48.868;10.730;2023-08-08T06:46:39;2.20;;;1.53;;
25982;SDS011;13773;48.868;10.730;2023-08-08T06:49:06;2.03;;;1.27;;
25982;SDS011;13773;48.868;10.730;2023-08-08T06:51:33;1.60;;;1.30;;
25982;SDS011;13773;48.868;10.730;2023-08-08T06:53:59;2.03;;;1.50;;
25982;SDS011;13773;48.868;10.730;2023-08-08T06:56:25;3.90;;;1.23;;
25982;SDS011;13773;48.868;10.730;2023-08-08T06:58:51;2.57;;;1.60;;
25982;SDS011;13773;48.868;10.730;2023-08-08T07:01:17;3.07;;;1.70;;
25982;SDS011;13773;48.868;10.730;2023-08-08T07:03:44;2.30;;;1.27;;
25982;SDS011;13773;48.868;10.730;2023-08-08T07:06:10;3.03;;;1.40;;
25982;SDS011;13773;48.868;10.730;2023-08-08T07:08:35;2.40;;;1.53;;
25982;SDS011;13773;48.868;10.730;2023-08-08T07:11:04;2.30;;;1.40;;
25982;SDS011;13773;48.868;10.730;2023-08-08T07:13:33;1.40;;;1.30;;
25982;SDS011;13773;48.868;10.730;2023-08-08T07:15:59;2.23;;;1.63;;
25982;SDS011;13773;48.868;10.730;2023-08-08T07:18:25;2.13;;;1.70;;
25982;SDS011;13773;48.868;10.730;2023-08-08T07:20:50;2.83;;;1.27;;
25982;SDS011;13773;48.868;10.730;2023-08-08T07:23:16;3.10;;;1.57;;
25982;SDS011;13773;48.868;10.730;2023-08-08T07:25:42;1.37;;;1.20;;
25982;SDS011;13773;48.868;10.730;2023-08-08T07:28:08;2.50;;;1.40;;
25982;SDS011;13773;48.868;10.730;2023-08-08T07:30:34;1.37;;;1.27;;
25982;SDS011;13773;48.868;10.730;2023-08-08T07:33:00;2.23;;;1.40;;
25982;SDS011;13773;48.868;10.730;2023-08-08T07:35:26;1.73;;;1.37;;
25982;SDS011;13773;48.868;10.730;2023-08-08T07:37:52;3.17;;;1.60;;
25982;SDS011;13773;48.868;10.730;2023-08-08T07:40:19;2.20;;;1.70;;
25982;SDS011;13773;48.868;10.730;2023-08-08T07:42:46;1.70;;;1.33;;
25982;SDS011;13773;48.868;10.730;2023-08-08T07:45:12;2.93;;;1.53;;
25982;SDS011;13773;48.868;10.730;2023-08-08T07:47:38;2.50;;;1.30;;
25982;SDS011;13773;48.868;10.730;2023-08-08T07:50:04;1.90;;;1.40;;
25982;SDS011;13773;48.868;10.730;2023-08-08T07:52:33;1.60;;;1.20;;
25982;SDS011;13773;48.868;10.730;2023-08-08T07:55:00;1.47;;;1.30;;
25982;SDS011;13773;48.868;10.730;2023-08-08T07:57:26;2.50;;;1.67;;
25982;SDS011;13773;48.868;10.730;2023-08-08T07:59:52;2.07;;;1.30;;
25982;SDS011;13773;48.868;10.730;2023-08-08T08:02:18;3.67;;;1.43;;
25982;SDS011;13773;48.868;10.730;2023-08-08T08:04:44;3.30;;;1.53;;
25982;SDS011;13773;48.868;10.730;2023-08-08T08:07:09;2.40;;;1.90;;
25982;SDS011;13773;48.868;10.730;2023-08-08T08:09:35;1.40;;;1.27;;
25982;SDS011;13773;48.868;10.730;2023-08-08T08:12:01;2.73;;;1.70;;
25982;SDS011;13773;48.868;10.730;2023-08-08T08:14:27;3.30;;;1.60;;
25982;SDS011;13773;48.868;10.730;2023-08-08T08:16:52;1.77;;;1.67;;
25982;SDS011;13773;48.868;10.730;2023-08-08T08:19:19;3.83;;;1.40;;
25982;SDS011;13773;48.868;10.730;2023-08-08T08:21:45;2.77;;;1.40;;
25982;SDS011;13773;48.868;10.730;2023-08-08T08:24:10;1.77;;;1.67;;
25982;SDS011;13773;48.868;10.730;2023-08-08T08:26:36;2.17;;;1.30;;
25982;SDS011;13773;48.868;10.730;2023-08-08T08:29:02;1.80;;;1.17;;
25982;SDS011;13773;48.868;10.730;2023-08-08T08:31:28;2.93;;;1.70;;
25982;SDS011;13773;48.868;10.730;2023-08-08T08:33:54;1.70;;;1.60;;
25982;SDS011;13773;48.868;10.730;2023-08-08T08:36:20;2.53;;;1.40;;
25982;SDS011;13773;48.868;10.730;2023-08-08T08:38:46;2.33;;;1.70;;
25982;SDS011;13773;48.868;10.730;2023-08-08T08:41:17;2.33;;;1.40;;
25982;SDS011;13773;48.868;10.730;2023-08-08T08:43:45;3.50;;;1.50;;
25982;SDS011;13773;48.868;10.730;2023-08-08T08:46:12;2.80;;;1.50;;
25982;SDS011;13773;48.868;10.730;2023-08-08T08:48:41;2.53;;;1.47;;
25982;SDS011;13773;48.868;10.730;2023-08-08T08:51:08;1.60;;;1.23;;
25982;SDS011;13773;48.868;10.730;2023-08-08T08:53:35;1.97;;;1.30;;
25982;SDS011;13773;48.868;10.730;2023-08-08T08:56:04;2.90;;;1.47;;
25982;SDS011;13773;48.868;10.730;2023-08-08T08:58:30;1.83;;;1.50;;
25982;SDS011;13773;48.868;10.730;2023-08-08T09:00:56;1.93;;;1.43;;
25982;SDS011;13773;48.868;10.730;2023-08-08T09:03:23;2.10;;;1.60;;
25982;SDS011;13773;48.868;10.730;2023-08-08T09:05:49;1.50;;;1.40;;
25982;SDS011;13773;48.868;10.730;2023-08-08T09:08:16;2.30;;;1.47;;
25982;SDS011;13773;48.868;10.730;2023-08-08T09:10:42;1.83;;;1.33;;
25982;SDS011;13773;48.868;10.730;2023-08-08T09:13:08;1.67;;;1.30;;
25982;SDS011;13773;48.868;10.730;2023-08-08T09:15:34;2.23;;;1.53;;
25982;SDS011;13773;48.868;10.730;2023-08-08T09:18:00;1.93;;;1.20;;
25982;SDS011;13773;48.868;10.730;2023-08-08T09:20:26;2.60;;;1.37;;
25982;SDS011;13773;48.868;10.730;2023-08-08T09:22:55;1.47;;;1.20;;
25982;SDS011;13773;48.868;10.730;2023-08-08T09:25:22;2.63;;;1.37;;
25982;SDS011;13773;48.868;10.730;2023-08-08T09:27:50;2.40;;;1.30;;
25982;SDS011;13773;48.868;10.730;2023-08-08T09:30:17;1.60;;;1.10;;
25982;SDS011;13773;48.868;10.730;2023-08-08T09:32:43;2.23;;;1.30;;
25982;SDS011;13773;48.868;10.730;2023-08-08T09:35:10;2.00;;;1.27;;
25982;SDS011;13773;48.868;10.730;2023-08-08T09:37:36;2.70;;;1.30;;
25982;SDS011;13773;48.868;10.730;2023-08-08T09:40:03;2.33;;;1.47;;
25982;SDS011;13773;48.868;10.730;2023-08-08T09:42:36;2.30;;;1.37;;
25982;SDS011;13773;48.868;10.730;2023-08-08T09:45:02;3.67;;;1.73;;
25982;SDS011;13773;48.868;10.730;2023-08-08T09:47:28;2.43;;;1.33;;
25982;SDS011;13773;48.868;10.730;2023-08-08T09:49:57;3.10;;;1.40;;
25982;SDS011;13773;48.868;10.730;2023-08-08T09:52:29;2.27;;;1.73;;
25982;SDS011;13773;48.868;10.730;2023-08-08T09:54:55;2.57;;;1.67;;
25982;SDS011;13773;48.868;10.730;2023-08-08T09:57:22;3.20;;;1.60;;
25982;SDS011;13773;48.868;10.730;2023-08-08T09:59:49;2.00;;;1.20;;
25982;SDS011;13773;48.868;10.730;2023-08-08T10:02:16;3.23;;;1.60;;
25982;SDS011;13773;48.868;10.730;2023-08-08T10:04:45;1.57;;;1.40;;
25982;SDS011;13773;48.868;10.730;2023-08-08T10:07:11;1.93;;;1.30;;
25982;SDS011;13773;48.868;10.730;2023-08-08T10:09:37;2.47;;;1.40;;
25982;SDS011;13773;48.868;10.730;2023-08-08T10:12:03;2.47;;;1.20;;
25982;SDS011;13773;48.868;10.730;2023-08-08T10:14:35;2.07;;;1.57;;
25982;SDS011;13773;48.868;10.730;2023-08-08T10:17:03;2.17;;;1.67;;
25982;SDS011;13773;48.868;10.730;2023-08-08T10:19:29;3.43;;;1.40;;
25982;SDS011;13773;48.868;10.730;2023-08-08T10:21:56;2.27;;;1.33;;
25982;SDS011;13773;48.868;10.730;2023-08-08T10:24:23;3.20;;;1.40;;
25982;SDS011;13773;48.868;10.730;2023-08-08T10:26:53;1.53;;;1.40;;
25982;SDS011;13773;48.868;10.730;2023-08-08T10:29:25;2.27;;;1.43;;
25982;SDS011;13773;48.868;10.730;2023-08-08T10:32:07;2.77;;;1.77;;
25982;SDS011;13773;48.868;10.730;2023-08-08T10:34:37;2.67;;;1.87;;
25982;SDS011;13773;48.868;10.730;2023-08-08T10:37:04;2.00;;;1.60;;
25982;SDS011;13773;48.868;10.730;2023-08-08T10:39:33;2.10;;;1.60;;
25982;SDS011;13773;48.868;10.730;2023-08-08T10:42:00;1.50;;;1.40;;
25982;SDS011;13773;48.868;10.730;2023-08-08T10:44:29;2.07;;;1.50;;
25982;SDS011;13773;48.868;10.730;2023-08-08T10:46:55;3.30;;;1.40;;
25982;SDS011;13773;48.868;10.730;2023-08-08T10:49:21;2.77;;;1.50;;
25982;SDS011;13773;48.868;10.730;2023-08-08T10:51:48;1.67;;;1.57;;
25982;SDS011;13773;48.868;10.730;2023-08-08T10:54:16;2.23;;;1.37;;
25982;SDS011;13773;48.868;10.730;2023-08-08T10:56:47;1.80;;;1.53;;
25982;SDS011;13773;48.868;10.730;2023-08-08T10:59:18;2.90;;;1.50;;
25982;SDS011;13773;48.868;10.730;2023-08-08T11:01:48;2.17;;;1.60;;
25982;SDS011;13773;48.868;10.730;2023-08-08T11:04:18;2.80;;;1.70;;
25982;SDS011;13773;48.868;10.730;2023-08-08T11:06:45;2.63;;;1.40;;
25982;SDS011;13773;48.868;10.730;2023-08-08T11:09:12;2.23;;;1.47;;
25982;SDS011;13773;48.868;10.730;2023-08-08T11:11:39;2.30;;;1.50;;
25982;SDS011;13773;48.868;10.730;2023-08-08T11:14:24;2.20;;;1.60;;
25982;SDS011;13773;48.868;10.730;2023-08-08T11:16:51;1.93;;;1.40;;
25982;SDS011;13773;48.868;10.730;2023-08-08T11:19:17;2.83;;;1.73;;
25982;SDS011;13773;48.868;10.730;2023-08-08T11:21:46;2.53;;;1.37;;
25982;SDS011;13773;48.868;10.730;2023-08-08T11:24:13;3.07;;;1.40;;
25982;SDS011;13773;48.868;10.730;2023-08-08T11:26:39;1.60;;;1.30;;
25982;SDS011;13773;48.868;10.730;2023-08-08T11:29:05;2.67;;;1.50;;
25982;SDS011;13773;48.868;10.730;2023-08-08T11:31:33;2.03;;;1.30;;
25982;SDS011;13773;48.868;10.730;2023-08-08T11:33:59;2.27;;;1.30;;
25982;SDS011;13773;48.868;10.730;2023-08-08T11:36:26;3.33;;;1.40;;
25982;SDS011;13773;48.868;10.730;2023-08-08T11:38:54;2.80;;;1.40;;
25982;SDS011;13773;48.868;10.730;2023-08-08T11:41:22;1.60;;;1.50;;
25982;SDS011;13773;48.868;10.730;2023-08-08T11:43:52;1.33;;;1.23;;
25982;SDS011;13773;48.868;10.730;2023-08-08T11:46:19;4.20;;;1.20;;
25982;SDS011;13773;48.868;10.730;2023-08-08T11:48:48;1.43;;;1.33;;
25982;SDS011;13773;48.868;10.730;2023-08-08T11:51:15;2.53;;;1.80;;
25982;SDS011;13773;48.868;10.730;2023-08-08T11:53:52;2.40;;;1.70;;
25982;SDS011;13773;48.868;10.730;2023-08-08T11:56:21;2.50;;;1.63;;
25982;SDS011;13773;48.868;10.730;2023-08-08T11:58:49;1.80;;;1.37;;
25982;SDS011;13773;48.868;10.730;2023-08-08T12:01:19;2.27;;;1.73;;
25982;SDS011;13773;48.868;10.730;2023-08-08T12:03:45;1.83;;;1.50;;
25982;SDS011;13773;48.868;10.730;2023-08-08T12:06:12;2.90;;;1.40;;
25982;SDS011;13773;48.868;10.730;2023-08-08T12:08:42;1.60;;;1.33;;
25982;SDS011;13773;48.868;10.730;2023-08-08T12:11:09;3.47;;;2.33;;
25982;SDS011;13773;48.868;10.730;2023-08-08T12:13:37;3.03;;;1.40;;
25982;SDS011;13773;48.868;10.730;2023-08-08T12:16:05;1.90;;;1.70;;
25982;SDS011;13773;48.868;10.730;2023-08-08T12:18:34;1.53;;;1.40;;
25982;SDS011;13773;48.868;10.730;2023-08-08T12:21:01;1.53;;;1.43;;
25982;SDS011;13773;48.868;10.730;2023-08-08T12:23:27;2.27;;;1.67;;
25982;SDS011;13773;48.868;10.730;2023-08-08T12:25:53;2.07;;;1.30;;
25982;SDS011;13773;48.868;10.730;2023-08-08T12:28:19;2.40;;;1.53;;
25982;SDS011;13773;48.868;10.730;2023-08-08T12:30:44;2.73;;;1.63;;
25982;SDS011;13773;48.868;10.730;2023-08-08T12:33:11;1.97;;;1.47;;
25982;SDS011;13773;48.868;10.730;2023-08-08T12:35:36;2.50;;;1.57;;
25982;SDS011;13773;48.868;10.730;2023-08-08T12:38:02;2.60;;;1.53;;
25982;SDS011;13773;48.868;10.730;2023-08-08T12:40:28;2.17;;;1.60;;
25982;SDS011;13773;48.868;10.730;2023-08-08T12:42:54;1.53;;;1.17;;
25982;SDS011;13773;48.868;10.730;2023-08-08T12:45:20;1.83;;;1.30;;
25982;SDS011;13773;48.868;10.730;2023-08-08T12:47:46;1.27;;;1.17;;
25982;SDS011;13773;48.868;10.730;2023-08-08T12:50:12;1.60;;;1.50;;
25982;SDS011;13773;48.868;10.730;2023-08-08T12:52:38;2.37;;;1.40;;
25982;SDS011;13773;48.868;10.730;2023-08-08T12:55:04;3.03;;;1.30;;
25982;SDS011;13773;48.868;10.730;2023-08-08T12:57:31;2.47;;;1.30;;
25982;SDS011;13773;48.868;10.730;2023-08-08T12:59:56;2.03;;;1.30;;
25982;SDS011;13773;48.868;10.730;2023-08-08T13:02:22;2.07;;;1.50;;
25982;SDS011;13773;48.868;10.730;2023-08-08T13:04:48;1.50;;;1.40;;
25982;SDS011;13773;48.868;10.730;2023-08-08T13:07:14;2.73;;;1.67;;
25982;SDS011;13773;48.868;10.730;2023-08-08T13:09:41;2.83;;;1.40;;
25982;SDS011;13773;48.868;10.730;2023-08-08T13:12:07;4.00;;;1.70;;
25982;SDS011;13773;48.868;10.730;2023-08-08T13:14:32;2.47;;;1.40;;
25982;SDS011;13773;48.868;10.730;2023-08-08T13:16:58;1.77;;;1.30;;
25982;SDS011;13773;48.868;10.730;2023-08-08T13:19:24;1.93;;;1.40;;
25982;SDS011;13773;48.868;10.730;2023-08-08T13:21:51;1.90;;;1.57;;
25982;SDS011;13773;48.868;10.730;2023-08-08T13:24:17;1.70;;;1.40;;
25982;SDS011;13773;48.868;10.730;2023-08-08T13:26:43;2.57;;;1.67;;
25982;SDS011;13773;48.868;10.730;2023-08-08T13:29:09;2.00;;;1.57;;
25982;SDS011;13773;48.868;10.730;2023-08-08T13:31:36;1.93;;;1.10;;
25982;SDS011;13773;48.868;10.730;2023-08-08T13:34:02;1.60;;;1.27;;
25982;SDS011;13773;48.868;10.730;2023-08-08T13:36:28;2.40;;;1.40;;
25982;SDS011;13773;48.868;10.730;2023-08-08T13:38:54;2.20;;;1.10;;
25982;SDS011;13773;48.868;10.730;2023-08-08T13:41:20;1.73;;;1.50;;
25982;SDS011;13773;48.868;10.730;2023-08-08T13:43:45;1.73;;;1.27;;
25982;SDS011;13773;48.868;10.730;2023-08-08T13:46:11;2.40;;;1.60;;
25982;SDS011;13773;48.868;10.730;2023-08-08T13:48:37;2.10;;;1.20;;
25982;SDS011;13773;48.868;10.730;2023-08-08T13:51:03;1.47;;;1.10;;
25982;SDS011;13773;48.868;10.730;2023-08-08T13:53:28;2.90;;;1.47;;
25982;SDS011;13773;48.868;10.730;2023-08-08T13:55:55;1.80;;;1.40;;
25982;SDS011;13773;48.868;10.730;2023-08-08T13:58:21;2.40;;;1.57;;
25982;SDS011;13773;48.868;10.730;2023-08-08T14:00:50;1.83;;;1.43;;
25982;SDS011;13773;48.868;10.730;2023-08-08T14:03:16;1.80;;;1.30;;
25982;SDS011;13773;48.868;10.730;2023-08-08T14:05:43;2.50;;;1.60;;
25982;SDS011;13773;48.868;10.730;2023-08-08T14:08:09;2.23;;;1.33;;
25982;SDS011;13773;48.868;10.730;2023-08-08T14:10:36;2.80;;;1.20;;
25982;SDS011;13773;48.868;10.730;2023-08-08T14:13:02;1.53;;;1.33;;
25982;SDS011;13773;48.868;10.730;2023-08-08T14:15:28;2.20;;;1.30;;
25982;SDS011;13773;48.868;10.730;2023-08-08T14:17:54;3.03;;;1.30;;
25982;SDS011;13773;48.868;10.730;2023-08-08T14:20:20;2.17;;;1.43;;
25982;SDS011;13773;48.868;10.730;2023-08-08T14:22:46;2.10;;;1.43;;
25982;SDS011;13773;48.868;10.730;2023-08-08T14:25:12;3.17;;;1.17;;
25982;SDS011;13773;48.868;10.730;2023-08-08T14:27:39;2.07;;;1.30;;
25982;SDS011;13773;48.868;10.730;2023-08-08T14:30:05;2.13;;;1.33;;
25982;SDS011;13773;48.868;10.730;2023-08-08T14:32:31;2.97;;;1.73;;